El Paso, Texas
Current Conditions -  °F | °C
As of 11:51 PM on Thursday 18 Dec 2014 (Local Time) from KELP Reporting Station
Broken Clouds Broken Clouds  
Wind Chill:   Ceiling: 8500
Heat Index:   Visibility: 10mi
Dew Point:   Wind: 6mph
Humidity: 71%   Direction: 290°WNW
Pressure: 30.13"   Gusts: NA
Location:  31.76°N, 106.48°W
Report Text: KELP 190651Z 29005KT 10SM FEW070 BKN085 BKN100 08/03 A3013 RMK AO2 SLP178 T00780028 401280017 $
Loading
Personal Weather Stations






























Interactive Weather Map New forecast layout! Learn more

10-Day Weather Forecast

Advertisements
Track Severe Weather on mobile